createdAt,value
2022-10-18T00:01:09.327Z,32.40
2022-10-18T00:06:15.491Z,28.80
2022-10-18T00:08:43.666Z,30.60
2022-10-18T00:11:11.805Z,30.60
2022-10-18T00:13:39.878Z,25.80
2022-10-18T00:16:15.335Z,28.90
2022-10-18T00:18:44.447Z,32.50
2022-10-18T00:21:17.091Z,30.60
2022-10-18T00:23:46.201Z,27.10
2022-10-18T00:26:24.080Z,26.50
2022-10-18T00:28:56.377Z,27.70
2022-10-18T00:31:31.616Z,22.60
2022-10-18T00:34:11.185Z,25.30
2022-10-18T00:36:39.323Z,22.40
2022-10-18T00:39:09.436Z,28.10
2022-10-18T00:41:38.474Z,21.90
2022-10-18T00:44:12.672Z,22.00
2022-10-18T00:46:49.092Z,22.10
2022-10-18T00:49:55.752Z,24.10
2022-10-18T00:52:34.803Z,23.30
2022-10-18T00:55:04.640Z,24.00
2022-10-18T00:57:33.284Z,25.50
2022-10-18T01:00:02.144Z,25.20
2022-10-18T01:02:32.416Z,22.30
2022-10-18T01:05:00.693Z,26.80
2022-10-18T01:07:47.907Z,25.30
2022-10-18T01:10:37.264Z,29.70
2022-10-18T01:13:25.819Z,21.80
2022-10-18T01:16:27.691Z,22.40
2022-10-18T01:19:13.959Z,30.50
2022-10-18T01:21:53.997Z,24.20
2022-10-18T01:24:53.532Z,23.80
2022-10-18T01:27:38.740Z,23.90
2022-10-18T01:30:33.941Z,23.80
2022-10-18T01:33:21.920Z,27.30
2022-10-18T01:35:58.922Z,25.10
2022-10-18T01:38:30.425Z,28.50
2022-10-18T01:41:02.299Z,30.60
2022-10-18T01:43:32.544Z,28.80
2022-10-18T01:46:01.151Z,25.50
2022-10-18T01:48:30.964Z,27.10
2022-10-18T01:50:59.382Z,27.30
2022-10-18T01:53:34.952Z,31.20
2022-10-18T01:56:24.916Z,27.70
2022-10-18T01:59:08.753Z,29.60
2022-10-18T02:01:51.064Z,25.70
2022-10-18T02:04:54.523Z,25.50
2022-10-18T02:07:39.601Z,30.70
2022-10-18T02:10:28.087Z,26.50
2022-10-18T02:12:57.284Z,27.40
2022-10-18T02:15:33.061Z,27.00
2022-10-18T02:18:11.046Z,25.30
2022-10-18T02:20:39.425Z,29.30
2022-10-18T02:23:10.839Z,25.90
2022-10-18T02:25:39.525Z,28.00
2022-10-18T02:28:07.819Z,27.50
2022-10-18T02:30:51.622Z,26.00
2022-10-18T02:33:32.691Z,26.20
2022-10-18T02:36:10.008Z,29.40
2022-10-18T02:38:41.431Z,26.30
2022-10-18T02:41:09.437Z,22.60
2022-10-18T02:43:37.501Z,27.30
2022-10-18T02:46:05.835Z,24.70
2022-10-18T02:48:33.827Z,34.70
2022-10-18T02:51:01.962Z,30.60
2022-10-18T02:53:30.047Z,28.10
2022-10-18T02:55:58.074Z,27.90
2022-10-18T02:58:26.100Z,28.20
2022-10-18T03:00:54.159Z,25.50
2022-10-18T03:03:22.206Z,28.90
2022-10-18T03:05:51.381Z,28.00
2022-10-18T03:08:20.056Z,27.90
2022-10-18T03:10:48.104Z,31.30
2022-10-18T03:13:16.599Z,26.40
2022-10-18T03:15:44.641Z,24.60
2022-10-18T03:18:12.677Z,26.20
2022-10-18T03:20:40.848Z,25.90
2022-10-18T03:23:09.085Z,27.70
2022-10-18T03:25:37.149Z,30.20
2022-10-18T03:28:05.340Z,25.20
2022-10-18T03:30:33.338Z,27.30
2022-10-18T03:33:01.408Z,25.90
2022-10-18T03:35:29.429Z,27.90
2022-10-18T03:37:57.724Z,21.60
2022-10-18T03:40:25.906Z,26.50
2022-10-18T03:42:53.969Z,26.60
2022-10-18T03:45:21.995Z,23.80
2022-10-18T03:47:50.024Z,25.90
2022-10-18T03:50:18.492Z,25.90
2022-10-18T03:52:46.591Z,26.30
2022-10-18T03:55:14.663Z,23.60
2022-10-18T03:57:42.661Z,23.90
2022-10-18T04:00:11.709Z,23.60
2022-10-18T04:02:42.724Z,21.20
2022-10-18T04:05:10.854Z,28.60
2022-10-18T04:07:38.897Z,29.00
2022-10-18T04:10:07.894Z,27.20
2022-10-18T04:12:35.915Z,26.50
2022-10-18T04:15:04.339Z,23.90
2022-10-18T04:17:32.620Z,33.20
2022-10-18T04:20:00.860Z,27.00
2022-10-18T04:22:28.919Z,29.50
2022-10-18T04:24:57.296Z,33.20
2022-10-18T04:27:25.710Z,30.30
2022-10-18T04:29:53.816Z,35.00
2022-10-18T04:32:21.843Z,33.10
2022-10-18T04:34:49.880Z,35.20
2022-10-18T04:37:17.927Z,36.60
2022-10-18T04:39:51.215Z,30.60
2022-10-18T04:42:22.699Z,35.90
2022-10-18T04:44:51.021Z,33.30
2022-10-18T04:47:19.104Z,28.80
2022-10-18T04:49:47.131Z,33.10
2022-10-18T04:52:15.222Z,31.80
2022-10-18T04:54:43.443Z,29.60
2022-10-18T04:57:11.487Z,28.60
2022-10-18T04:59:39.549Z,33.90
2022-10-18T05:02:07.821Z,29.70
2022-10-18T05:04:35.932Z,31.10
2022-10-18T05:07:05.946Z,36.40
2022-10-18T05:09:34.022Z,32.60
2022-10-18T05:12:02.197Z,30.00
2022-10-18T05:14:30.363Z,31.80
2022-10-18T05:16:58.383Z,28.70
2022-10-18T05:19:26.480Z,32.00
2022-10-18T05:21:54.529Z,31.00
2022-10-18T05:24:25.482Z,31.60
2022-10-18T05:26:55.749Z,27.00
2022-10-18T05:29:24.680Z,33.70
2022-10-18T05:31:52.752Z,33.60
2022-10-18T05:34:20.951Z,35.60
2022-10-18T05:36:51.931Z,33.30
2022-10-18T05:39:20.072Z,32.00
2022-10-18T05:41:48.106Z,38.00
2022-10-18T05:44:16.170Z,38.80
2022-10-18T05:46:44.268Z,35.60
2022-10-18T05:49:13.249Z,33.90
2022-10-18T05:51:41.413Z,43.90
2022-10-18T05:54:12.167Z,36.40
2022-10-18T05:56:40.961Z,29.40
2022-10-18T05:59:12.310Z,42.40
2022-10-18T06:01:42.415Z,47.90
2022-10-18T06:04:10.734Z,115.40
2022-10-18T06:06:39.695Z,59.60
2022-10-18T06:09:08.642Z,46.10
2022-10-18T06:11:37.391Z,48.20
2022-10-18T06:14:05.632Z,41.80
2022-10-18T06:16:33.976Z,45.60
2022-10-18T06:19:02.132Z,62.50
2022-10-18T06:21:30.238Z,42.60
2022-10-18T06:23:59.552Z,42.50
2022-10-18T06:26:27.958Z,54.30
2022-10-18T06:28:56.131Z,50.30
2022-10-18T06:31:24.193Z,39.10
2022-10-18T06:33:52.269Z,37.40
2022-10-18T06:36:24.102Z,55.10
2022-10-18T06:38:52.424Z,44.90
2022-10-18T06:41:20.725Z,51.30
2022-10-18T06:43:50.571Z,36.90
2022-10-18T06:46:19.137Z,33.10
2022-10-18T06:48:47.243Z,36.70
2022-10-18T06:51:15.569Z,40.30
2022-10-18T06:53:44.504Z,38.60
2022-10-18T06:56:21.453Z,33.90
2022-10-18T06:58:49.564Z,34.90
2022-10-18T07:01:19.131Z,27.30
2022-10-18T07:03:49.172Z,30.60
2022-10-18T07:06:21.279Z,31.30
2022-10-18T07:08:52.803Z,35.10
2022-10-18T07:11:25.321Z,35.20
2022-10-18T07:13:55.261Z,39.40
2022-10-18T07:16:23.365Z,36.70
2022-10-18T07:18:51.592Z,31.50
2022-10-18T07:21:22.570Z,31.50
2022-10-18T07:23:51.930Z,42.80
2022-10-18T07:26:32.117Z,33.00
2022-10-18T07:29:11.617Z,33.30
2022-10-18T07:31:40.934Z,36.70
2022-10-18T07:34:12.766Z,39.30
2022-10-18T07:36:41.637Z,39.80
2022-10-18T07:39:09.687Z,39.10
2022-10-18T07:41:38.143Z,38.10
2022-10-18T07:44:06.741Z,32.90
2022-10-18T07:46:34.880Z,33.90
2022-10-18T07:49:03.287Z,33.20
2022-10-18T07:51:32.828Z,30.70
2022-10-18T07:54:00.888Z,38.30
2022-10-18T07:56:29.033Z,52.70
2022-10-18T07:58:57.233Z,74.10
2022-10-18T08:01:25.989Z,78.50
2022-10-18T08:03:54.379Z,77.30
2022-10-18T08:06:23.276Z,64.10
2022-10-18T08:08:52.349Z,58.50
2022-10-18T08:11:23.938Z,72.20
2022-10-18T08:13:53.922Z,80.60
2022-10-18T08:16:28.160Z,53.90
2022-10-18T08:18:58.386Z,56.20
2022-10-18T08:21:27.027Z,64.30
2022-10-18T08:23:55.293Z,64.30
2022-10-18T08:26:23.948Z,64.00
2022-10-18T08:29:10.279Z,63.20
2022-10-18T08:31:40.224Z,69.10
2022-10-18T08:34:08.244Z,76.20
2022-10-18T08:36:37.500Z,61.10
2022-10-18T08:39:05.556Z,51.40
2022-10-18T08:41:58.644Z,61.70
2022-10-18T08:44:33.837Z,57.00
2022-10-18T08:47:10.553Z,48.80
2022-10-18T08:49:56.021Z,52.70
2022-10-18T08:52:57.760Z,54.30
2022-10-18T08:55:39.687Z,49.00
2022-10-18T08:58:34.043Z,63.30
2022-10-18T09:01:26.196Z,68.70
2022-10-18T09:04:29.441Z,50.40
2022-10-18T09:07:32.507Z,49.30
2022-10-18T09:10:33.934Z,47.10
2022-10-18T09:13:42.535Z,55.80
2022-10-18T09:16:22.049Z,53.10
2022-10-18T09:19:32.768Z,59.10
2022-10-18T09:22:13.235Z,52.30
2022-10-18T09:24:56.528Z,51.80
2022-10-18T09:27:50.998Z,49.70
2022-10-18T09:30:45.589Z,41.90
2022-10-18T09:33:19.582Z,49.50
2022-10-18T09:36:07.953Z,53.20
2022-10-18T09:39:03.993Z,36.00
2022-10-18T09:41:46.126Z,43.40
2022-10-18T09:44:35.993Z,44.60
2022-10-18T09:47:17.108Z,42.90
2022-10-18T09:49:57.387Z,56.90
2022-10-18T09:52:42.985Z,40.10
2022-10-18T09:55:21.341Z,39.00
2022-10-18T09:57:56.627Z,48.30
2022-10-18T10:00:33.759Z,44.80
2022-10-18T10:03:07.203Z,46.30
2022-10-18T10:05:35.251Z,45.00
2022-10-18T10:08:04.336Z,54.30
2022-10-18T10:10:33.484Z,46.10
2022-10-18T10:13:24.666Z,51.60
2022-10-18T10:16:00.781Z,42.90
2022-10-18T10:18:36.494Z,49.30
2022-10-18T10:21:14.813Z,35.00
2022-10-18T10:23:53.278Z,33.30
2022-10-18T10:26:31.122Z,34.20
2022-10-18T10:28:59.917Z,31.40
2022-10-18T10:31:30.914Z,31.70
2022-10-18T10:34:02.142Z,33.00
2022-10-18T10:36:31.990Z,32.20
2022-10-18T10:39:06.413Z,50.50
2022-10-18T10:41:34.935Z,49.20
2022-10-18T10:44:13.902Z,29.40
2022-10-18T10:46:42.571Z,31.90
2022-10-18T10:49:46.476Z,75.60
2022-10-18T10:52:27.216Z,37.20
2022-10-18T10:55:11.333Z,38.40
2022-10-18T10:57:48.433Z,39.30
2022-10-18T11:00:44.329Z,31.10
2022-10-18T11:03:29.106Z,34.40
2022-10-18T11:06:00.879Z,29.30
2022-10-18T11:08:41.539Z,25.50
2022-10-18T11:11:26.784Z,24.10
2022-10-18T11:14:26.671Z,23.30
2022-10-18T11:17:27.843Z,37.20
2022-10-18T11:20:09.748Z,27.20
2022-10-18T11:23:05.789Z,27.10
2022-10-18T11:26:04.485Z,20.40
2022-10-18T11:29:28.784Z,22.10
2022-10-18T11:32:19.514Z,20.60
2022-10-18T11:35:26.983Z,19.80
2022-10-18T11:38:32.289Z,18.10
2022-10-18T11:41:28.452Z,19.10
2022-10-18T11:44:03.664Z,19.30
2022-10-18T11:46:59.299Z,18.40
2022-10-18T11:50:05.740Z,20.80
2022-10-18T11:52:44.906Z,17.70
2022-10-18T11:55:46.461Z,24.70
2022-10-18T11:58:38.823Z,15.40
2022-10-18T12:01:29.564Z,19.20
2022-10-18T12:04:18.200Z,15.80
2022-10-18T12:06:50.760Z,18.10
2022-10-18T12:09:45.841Z,12.40
2022-10-18T12:12:33.507Z,14.40
2022-10-18T12:15:14.396Z,20.20
2022-10-18T12:17:50.139Z,22.30
2022-10-18T12:20:30.061Z,17.70
2022-10-18T12:23:16.256Z,15.50
2022-10-18T12:25:52.759Z,19.00
2022-10-18T12:28:51.859Z,11.90
2022-10-18T12:31:46.072Z,21.90
2022-10-18T12:34:26.513Z,24.70
2022-10-18T12:37:36.700Z,15.10
2022-10-18T12:40:32.315Z,15.00
2022-10-18T12:43:07.236Z,21.20
2022-10-18T12:45:46.492Z,22.00
2022-10-18T12:48:33.284Z,21.90
2022-10-18T12:51:20.274Z,23.90
2022-10-18T12:54:08.215Z,21.90
2022-10-18T12:56:42.194Z,21.40
2022-10-18T12:59:16.369Z,14.20
2022-10-18T13:01:50.641Z,21.30
2022-10-18T13:04:27.889Z,14.10
2022-10-18T13:06:59.625Z,16.10
2022-10-18T13:09:35.465Z,15.50
2022-10-18T13:12:09.633Z,19.90
2022-10-18T13:14:53.446Z,15.80
2022-10-18T13:17:49.920Z,20.60
2022-10-18T13:20:40.859Z,17.00
2022-10-18T13:23:39.265Z,18.90
2022-10-18T13:26:25.891Z,16.90
2022-10-18T13:29:09.567Z,17.70
2022-10-18T13:32:01.416Z,20.70
2022-10-18T13:34:38.529Z,12.40
2022-10-18T13:37:09.592Z,15.20
2022-10-18T13:39:40.060Z,16.20
2022-10-18T13:42:14.255Z,13.10
2022-10-18T13:44:44.734Z,11.50
2022-10-18T13:47:16.342Z,12.30
2022-10-18T13:50:35.544Z,13.60
2022-10-18T13:53:32.938Z,12.40
2022-10-18T13:56:34.466Z,12.40
2022-10-18T13:59:18.568Z,17.50
2022-10-18T14:02:00.521Z,14.50
2022-10-18T14:04:43.702Z,16.50
2022-10-18T14:09:56.171Z,14.80
2022-10-18T14:12:41.112Z,15.70
2022-10-18T14:15:24.720Z,13.60
2022-10-18T14:18:06.456Z,14.60
2022-10-18T14:21:01.251Z,12.40
2022-10-18T14:23:46.775Z,12.70
2022-10-18T14:26:19.550Z,13.90
2022-10-18T14:29:06.918Z,14.90
2022-10-18T14:31:35.267Z,12.60
2022-10-18T14:34:03.771Z,14.10
2022-10-18T14:36:42.324Z,15.30
2022-10-18T14:39:29.864Z,16.40
2022-10-18T14:41:58.505Z,13.10
2022-10-18T14:44:30.689Z,15.90
2022-10-18T14:47:01.480Z,18.20
2022-10-18T14:49:30.417Z,21.90
2022-10-18T14:52:00.408Z,26.20
2022-10-18T14:54:33.770Z,28.90
2022-10-18T14:57:03.281Z,32.70
2022-10-18T14:59:41.707Z,39.50
2022-10-18T15:02:21.407Z,68.50
2022-10-18T15:05:19.517Z,61.60
2022-10-18T15:07:50.323Z,58.20
2022-10-18T15:10:25.544Z,54.20
2022-10-18T15:13:09.278Z,63.20
2022-10-18T15:15:39.198Z,90.00
2022-10-18T15:18:08.325Z,125.70
2022-10-18T15:20:42.445Z,175.40
2022-10-18T15:23:31.238Z,185.80
2022-10-18T15:26:09.998Z,137.20
2022-10-18T15:28:52.375Z,106.70
2022-10-18T15:31:28.302Z,101.70
2022-10-18T15:34:21.340Z,63.20
2022-10-18T15:36:50.826Z,35.00
2022-10-18T15:39:25.703Z,38.00
2022-10-18T15:41:59.655Z,23.10
2022-10-18T15:44:34.812Z,32.70
2022-10-18T15:47:11.977Z,22.30
2022-10-18T15:49:46.265Z,33.70
2022-10-18T15:52:38.603Z,31.30
2022-10-18T15:55:52.395Z,34.50
2022-10-18T15:58:27.847Z,42.80
2022-10-18T16:01:00.491Z,39.00
2022-10-18T16:03:28.755Z,41.70
2022-10-18T16:06:03.226Z,40.50
2022-10-18T16:08:32.287Z,44.30
2022-10-18T16:11:00.657Z,41.50
2022-10-18T16:13:28.962Z,40.90
2022-10-18T16:15:57.074Z,40.00
2022-10-18T16:18:26.233Z,39.40
2022-10-18T16:20:54.331Z,37.20
2022-10-18T16:23:26.371Z,40.10
2022-10-18T16:25:55.188Z,46.80
2022-10-18T16:28:25.762Z,42.20
2022-10-18T16:30:58.981Z,37.70
2022-10-18T16:33:27.207Z,44.50
2022-10-18T16:35:55.335Z,41.00
2022-10-18T16:38:34.013Z,38.30
2022-10-18T16:41:05.992Z,37.00
2022-10-18T16:43:35.117Z,37.80
2022-10-18T16:46:04.617Z,34.50
2022-10-18T16:48:33.279Z,32.00
2022-10-18T16:51:01.996Z,36.20
2022-10-18T16:53:30.098Z,37.70
2022-10-18T16:56:01.177Z,36.20
2022-10-18T16:58:31.184Z,36.40
2022-10-18T17:01:01.915Z,33.80
2022-10-18T17:06:00.102Z,27.90
2022-10-18T17:08:29.139Z,36.00
2022-10-18T17:10:59.275Z,30.70
2022-10-18T17:13:27.373Z,32.60
2022-10-18T17:15:56.144Z,30.60
2022-10-18T17:18:30.505Z,30.60
2022-10-18T17:21:02.990Z,30.70
2022-10-18T17:23:31.158Z,26.00
2022-10-18T17:26:07.231Z,32.00
2022-10-18T17:28:43.282Z,33.00
2022-10-18T17:31:14.764Z,32.10
2022-10-18T17:33:42.822Z,43.70
2022-10-18T17:36:11.693Z,39.10
2022-10-18T17:38:39.791Z,39.00
2022-10-18T17:41:11.763Z,34.50
2022-10-18T17:46:14.384Z,34.30
2022-10-18T17:48:42.589Z,35.60
2022-10-18T17:51:14.802Z,38.60
2022-10-18T17:53:43.092Z,34.30
2022-10-18T17:56:11.990Z,34.60
2022-10-18T17:58:40.187Z,36.80
2022-10-18T18:01:18.328Z,35.30
2022-10-18T18:03:50.141Z,32.50
2022-10-18T18:06:20.299Z,33.10
2022-10-18T18:08:49.651Z,37.40
2022-10-18T18:11:18.311Z,30.10
2022-10-18T18:13:46.339Z,33.00
2022-10-18T18:16:20.859Z,32.40
2022-10-18T18:18:52.013Z,41.50
2022-10-18T18:21:20.930Z,35.60
2022-10-18T18:23:50.280Z,39.00
2022-10-18T18:26:19.341Z,43.30
2022-10-18T18:28:47.882Z,43.10
2022-10-18T18:31:23.534Z,40.10
2022-10-18T18:33:56.784Z,46.20
2022-10-18T18:36:29.056Z,47.60
2022-10-18T18:38:57.938Z,45.10
2022-10-18T18:41:27.898Z,46.00
2022-10-18T18:44:00.606Z,50.70
2022-10-18T18:46:33.247Z,52.40
2022-10-18T18:49:01.352Z,53.50
2022-10-18T18:51:29.469Z,57.40
2022-10-18T18:53:57.563Z,57.00
2022-10-18T18:56:28.930Z,59.80
2022-10-18T18:58:59.210Z,56.00
2022-10-18T19:01:30.939Z,64.30
2022-10-18T19:04:00.054Z,58.50
2022-10-18T19:06:38.441Z,63.00
2022-10-18T19:09:13.238Z,63.90
2022-10-18T19:11:41.266Z,65.40
2022-10-18T19:14:09.433Z,60.10
2022-10-18T19:17:01.680Z,61.30
2022-10-18T19:19:31.017Z,56.00
2022-10-18T19:22:04.447Z,54.20
2022-10-18T19:24:32.671Z,49.40
2022-10-18T19:27:12.363Z,45.50
2022-10-18T19:29:41.023Z,46.30
2022-10-18T19:32:15.891Z,51.60
2022-10-18T19:34:44.123Z,50.00
2022-10-18T19:37:13.681Z,49.20
2022-10-18T19:39:42.076Z,44.60
2022-10-18T19:42:15.715Z,49.00
2022-10-18T19:44:46.854Z,47.40
2022-10-18T19:47:16.221Z,40.60
2022-10-18T19:49:44.316Z,48.60
2022-10-18T19:52:12.488Z,42.00
2022-10-18T19:54:40.664Z,43.90
2022-10-18T19:57:08.904Z,48.20
2022-10-18T19:59:37.027Z,60.40
2022-10-18T20:02:05.321Z,48.80
2022-10-18T20:04:35.059Z,44.40
2022-10-18T20:07:03.155Z,36.40
2022-10-18T20:09:31.288Z,41.80
2022-10-18T20:11:59.290Z,41.60
2022-10-18T20:14:27.311Z,34.00
2022-10-18T20:16:55.388Z,35.00
2022-10-18T20:19:23.500Z,38.90
2022-10-18T20:21:51.568Z,32.10
2022-10-18T20:24:19.599Z,33.00
2022-10-18T20:26:47.666Z,32.00
2022-10-18T20:29:15.737Z,28.10
2022-10-18T20:31:43.863Z,27.00
2022-10-18T20:34:12.185Z,25.50
2022-10-18T20:36:40.856Z,28.80
2022-10-18T20:39:09.797Z,28.00
2022-10-18T20:41:43.244Z,30.80
2022-10-18T20:44:16.022Z,29.10
2022-10-18T20:46:44.363Z,33.10
2022-10-18T20:49:15.609Z,30.20
2022-10-18T20:51:43.807Z,32.70
2022-10-18T20:54:12.770Z,31.90
2022-10-18T20:56:40.939Z,34.20
2022-10-18T20:59:10.211Z,30.80
2022-10-18T21:01:39.346Z,33.50
2022-10-18T21:04:10.308Z,33.20
2022-10-18T21:06:42.526Z,33.90
2022-10-18T21:09:17.358Z,33.90
2022-10-18T21:11:49.770Z,34.20
2022-10-18T21:14:20.737Z,31.20
2022-10-18T21:16:50.172Z,28.30
2022-10-18T21:19:22.795Z,27.70
2022-10-18T21:21:54.733Z,25.40
2022-10-18T21:24:24.574Z,30.50
2022-10-18T21:26:52.803Z,32.40
2022-10-18T21:29:22.657Z,26.10
2022-10-18T21:31:59.331Z,27.90
2022-10-18T21:34:27.480Z,30.70
2022-10-18T21:36:55.485Z,33.20
2022-10-18T21:41:57.469Z,25.80
2022-10-18T21:44:25.932Z,22.50
2022-10-18T21:46:55.076Z,27.70
2022-10-18T21:49:25.075Z,25.70
2022-10-18T21:51:53.224Z,24.30
2022-10-18T21:54:21.387Z,24.90
2022-10-18T21:56:49.407Z,25.30
2022-10-18T21:59:17.426Z,27.40
2022-10-18T22:01:45.889Z,29.20
2022-10-18T22:04:23.149Z,29.70
2022-10-18T22:06:52.080Z,27.90
2022-10-18T22:09:21.503Z,28.80
2022-10-18T22:11:52.932Z,27.50
2022-10-18T22:14:21.802Z,32.50
2022-10-18T22:16:50.116Z,30.30
2022-10-18T22:19:18.206Z,32.90
2022-10-18T22:21:46.627Z,30.20
2022-10-18T22:24:14.927Z,31.80
2022-10-18T22:26:44.577Z,27.50
2022-10-18T22:29:21.233Z,26.30
2022-10-18T22:31:53.559Z,27.20
2022-10-18T22:34:29.465Z,22.30
2022-10-18T22:36:57.536Z,25.90
2022-10-18T22:39:25.641Z,26.60
2022-10-18T22:41:56.359Z,25.30
2022-10-18T22:44:26.624Z,29.80
2022-10-18T22:46:54.625Z,25.30
2022-10-18T22:49:22.666Z,24.00
2022-10-18T22:51:50.742Z,27.80
2022-10-18T22:54:18.847Z,26.60
2022-10-18T22:56:46.909Z,25.10
2022-10-18T22:59:15.013Z,23.00
2022-10-18T23:01:43.033Z,23.70
2022-10-18T23:04:11.204Z,23.40
2022-10-18T23:06:39.848Z,23.00
2022-10-18T23:09:10.709Z,28.70
2022-10-18T23:11:38.786Z,22.70
2022-10-18T23:14:07.115Z,24.10
2022-10-18T23:16:35.664Z,20.80
2022-10-18T23:19:04.419Z,24.90
2022-10-18T23:21:34.316Z,22.70
2022-10-18T23:24:02.359Z,25.30
2022-10-18T23:26:30.401Z,22.10
2022-10-18T23:28:58.622Z,21.30
2022-10-18T23:31:33.004Z,21.50
2022-10-18T23:34:05.046Z,20.20
2022-10-18T23:36:34.114Z,19.80
2022-10-18T23:39:04.070Z,20.40
2022-10-18T23:41:32.536Z,20.80
2022-10-18T23:44:00.624Z,22.90
2022-10-18T23:46:28.759Z,27.50
2022-10-18T23:48:56.821Z,22.20
2022-10-18T23:51:24.884Z,21.30
2022-10-18T23:53:53.152Z,21.80
2022-10-18T23:56:21.176Z,21.20
2022-10-18T23:58:49.191Z,22.90
